Date,TemperatureHighF,TemperatureAvgF,TemperatureLowF,DewpointHighF,DewpointAvgF,DewpointLowF,HumidityHigh,HumidityAvg,HumidityLow,PressureMaxIn,PressureMinIn,WindSpeedMaxMPH,WindSpeedAvgMPH,GustSpeedMaxMPH,PrecipitationSumIn
2013-1-1,31.9,29.4,22.7,27.5,23.9,15.7,85,80,74,30.11,30.00,16,7,16,0.00
2013-1-2,26.1,21.2,15.8,15.7,11.8,8.8,82,67,57,30.28,30.09,18,5,18,0.00
2013-1-3,32.5,23.7,13.9,21.9,14.3,7.5,77,67,58,30.29,30.19,27,11,27,0.01
2013-1-4,31.9,28.5,26.3,20.7,18.9,16.1,73,67,60,30.30,30.19,34,20,35,0.00
2013-1-5,35.9,30.0,25.0,23.5,20.4,16.0,74,67,59,30.42,30.18,22,10,22,0.03
2013-1-6,37.7,34.6,31.8,29.1,26.1,22.9,81,71,65,30.24,30.02,24,11,24,0.11
2013-1-7,34.3,30.2,25.8,26.1,22.9,19.4,82,74,64,30.49,30.24,14,8,14,0.01
2013-1-8,43.6,30.5,23.0,29.9,22.1,17.3,80,71,57,30.41,30.29,20,9,20,0.08
2013-1-9,46.0,42.1,38.0,38.6,34.1,28.0,83,73,58,30.49,30.25,28,16,28,0.07
2013-1-10,39.7,36.3,32.3,28.7,27.1,25.6,79,69,63,30.61,30.28,12,4,12,0.00
2013-1-11,55.2,48.6,38.0,50.2,41.0,26.1,87,75,56,30.28,29.95,21,8,21,0.13
2013-1-12,62.9,57.7,52.3,55.2,51.6,48.5,90,81,70,30.06,29.90,18,10,18,0.02
2013-1-13,66.8,61.5,56.4,55.5,52.4,50.6,86,72,64,29.91,29.82,30,13,30,0.18
2013-1-14,57.5,38.0,30.2,52.9,29.9,21.7,86,72,62,30.35,29.85,22,6,22,0.01
2013-1-15,31.7,28.8,24.5,26.6,21.5,18.9,83,74,67,30.39,30.09,9,5,9,0.03
2013-1-16,33.3,32.0,31.1,29.6,28.0,26.5,90,85,82,30.09,29.91,4,0,4,0.70
2013-1-17,33.3,31.4,30.1,27.4,26.0,24.4,82,80,77,30.19,30.02,15,3,15,0.00
2013-1-18,31.7,26.6,18.1,24.5,14.8,7.3,79,61,53,30.52,30.17,22,10,22,0.01
2013-1-19,51.8,42.9,31.7,25.6,20.8,13.4,53,41,31,30.28,29.82,43,23,43,0.07
2013-1-20,45.2,35.1,23.0,30.2,19.0,11.3,66,52,44,30.12,29.77,44,17,44,0.00
2013-1-21,27.8,21.6,12.2,15.4,10.8,-0.4,72,63,52,30.11,29.92,39,11,39,0.00
2013-1-22,15.7,9.5,6.4,0.6,-2.0,-4.7,66,59,47,30.33,30.08,30,12,30,0.00
2013-1-23,16.6,11.2,4.4,7.4,0.4,-3.6,75,62,46,30.37,30.12,22,9,22,0.00
2013-1-24,21.0,15.3,11.9,11.8,5.2,-1.7,79,65,42,30.58,30.10,20,4,20,0.00
2013-1-25,18.6,14.6,11.6,13.1,6.9,0.8,79,71,61,30.57,30.07,13,2,13,0.00
2013-1-26,27.0,22.5,18.6,19.5,15.7,12.9,81,75,62,30.48,30.14,14,6,14,0.00
2013-1-27,29.9,23.8,15.5,18.4,14.3,9.8,79,67,56,30.57,30.34,8,2,8,0.12
2013-1-28,49.7,40.6,29.3,46.0,35.6,18.3,87,82,63,30.36,30.03,32,15,32,0.21
2013-1-29,66.2,56.6,49.5,53.6,49.1,45.8,88,77,61,30.06,29.75,25,14,25,0.01
2013-1-30,67.7,57.2,48.3,53.8,49.3,41.8,87,75,61,29.76,29.19,50,20,50,1.15
2013-1-31,48.2,28.1,22.0,41.7,19.4,12.3,80,70,57,29.86,29.18,50,26,50,0.01
2013-2-1,22.2,14.7,8.4,16.6,5.6,0.3,79,67,60,30.38,29.83,30,14,30,0.00
2013-2-2,23.3,16.6,7.6,18.2,9.8,0.1,82,74,69,30.37,30.01,26,11,26,0.00
2013-2-3,25.6,22.2,17.1,20.5,16.3,9.9,90,78,68,30.06,29.85,28,8,28,0.02
2013-2-4,26.8,21.5,16.7,22.3,14.9,9.2,83,76,65,30.11,29.89,24,9,24,0.00
2013-2-5,31.8,28.7,26.8,27.6,24.2,22.3,85,83,75,29.96,29.84,18,4,18,0.00
2013-2-6,31.4,28.0,22.7,23.8,20.4,14.4,84,73,61,30.35,29.96,15,5,15,0.00
2013-2-7,42.4,30.6,18.9,28.7,21.7,12.8,79,70,56,30.32,29.98,14,4,14,0.14
2013-2-8,37.5,32.1,25.1,33.1,25.7,18.6,84,77,72,30.17,29.80,23,11,23,0.12
2013-2-9,33.6,28.8,24.3,20.0,16.6,14.9,78,60,52,30.42,30.17,20,4,15,0.00
2013-2-10,49.6,34.9,18.9,29.3,19.2,12.5,77,54,36,30.38,29.96,25,7,25,0.00
2013-2-11,60.0,46.6,36.9,45.0,34.3,24.3,84,64,37,29.96,29.64,48,22,48,0.06
2013-2-12,43.6,37.0,33.3,28.7,24.3,22.4,67,60,51,30.06,29.90,30,12,30,0.00
2013-2-13,38.0,32.9,28.5,28.3,24.3,19.1,85,71,57,29.92,29.68,8,2,8,0.01
2013-2-14,41.9,34.2,27.3,32.1,27.4,22.2,85,76,64,29.97,29.87,32,8,32,0.08
2013-2-15,38.6,33.6,26.3,32.2,26.9,19.8,84,76,64,30.06,29.91,23,7,23,0.00
2013-2-16,27.2,24.3,21.1,19.4,15.6,11.1,81,69,56,30.06,29.94,14,2,14,0.05
2013-2-17,22.7,18.2,14.7,14.6,9.3,4.5,77,68,54,30.30,29.94,21,8,21,0.00
2013-2-18,43.6,28.5,12.6,29.5,14.8,2.8,67,57,45,30.34,29.91,20,10,20,0.00
2013-2-19,45.4,35.9,23.6,36.3,27.0,14.6,81,70,47,29.94,29.66,39,23,39,0.19
2013-2-20,23.6,19.7,18.0,15.3,10.9,7.8,81,68,58,30.25,29.94,32,17,32,0.00
2013-2-21,24.4,20.8,18.6,14.7,12.7,10.7,78,70,62,30.38,30.22,14,6,14,0.00
2013-2-22,37.5,30.7,20.5,31.5,23.8,12.6,84,75,58,30.31,30.01,12,4,12,0.01
2013-2-23,43.6,36.5,31.8,35.3,30.0,24.8,83,77,68,30.01,29.85,12,2,12,0.00
2013-2-24,31.7,28.8,27.3,24.7,21.5,19.5,79,74,68,30.16,29.86,18,6,18,0.00
2013-2-25,40.6,32.6,25.4,24.8,21.1,18.3,75,63,50,30.25,30.06,9,3,9,0.00
2013-2-26,39.7,35.0,29.9,34.0,26.2,19.0,85,71,52,30.07,29.57,22,6,22,0.73
2013-2-27,42.4,38.3,32.9,35.7,33.1,28.3,85,81,71,29.67,29.55,30,13,30,0.19
2013-2-28,33.7,32.4,31.1,29.1,27.4,25.4,84,82,78,29.82,29.62,26,12,26,0.03
2013-3-1,31.2,28.5,24.7,26.5,22.4,18.0,83,77,71,29.99,29.82,14,4,14,0.02
2013-3-2,28.3,25.7,24.2,20.1,18.8,17.5,81,75,67,29.98,29.92,14,4,14,0.00
2013-3-3,26.9,24.5,22.3,20.2,17.0,14.0,85,73,63,30.04,29.94,18,7,18,0.01
2013-3-4,37.2,28.0,19.7,22.5,16.5,11.1,76,62,49,30.15,30.03,22,7,22,0.00
2013-3-5,44.5,33.3,20.7,26.7,18.2,14.0,79,55,32,30.11,29.67,21,4,21,0.00
2013-3-6,39.1,34.6,30.6,29.9,26.8,23.9,85,74,58,30.12,29.66,13,5,13,0.30
2013-3-7,38.9,34.1,31.6,29.3,26.8,24.2,85,75,62,30.29,30.11,15,5,15,0.01
2013-3-8,35.5,31.6,28.4,25.9,23.7,21.7,77,72,66,30.43,30.29,22,6,22,0.00
2013-3-9,53.4,40.2,25.8,33.0,25.6,19.3,79,58,41,30.41,30.17,12,4,12,0.00
2013-3-10,69.5,56.5,44.6,38.8,30.3,22.3,44,37,27,30.17,29.96,21,10,21,0.00
2013-3-11,62.9,56.5,46.7,46.0,35.1,30.6,81,46,33,29.97,29.64,36,14,36,0.23
2013-3-12,46.1,38.6,33.8,40.6,31.1,25.3,83,74,65,29.99,29.73,23,13,23,0.03
2013-3-13,35.9,30.8,26.6,27.2,23.3,18.0,83,74,56,30.15,29.92,31,12,31,0.05
2013-3-14,37.6,29.5,22.8,20.9,17.7,14.7,71,61,49,30.24,30.15,23,11,23,0.00
2013-3-15,49.3,38.2,27.3,34.0,26.3,17.5,82,62,52,30.16,29.83,29,10,29,0.01
2013-3-16,40.9,37.0,31.6,36.4,32.8,26.6,88,85,82,29.96,29.61,14,3,14,0.03
2013-3-17,36.1,31.4,28.0,26.7,22.5,20.6,82,70,57,30.19,29.96,12,3,12,0.01
2013-3-18,41.4,34.4,29.7,35.4,28.4,21.2,85,79,68,30.16,29.70,23,8,23,0.44
2013-3-19,44.2,37.6,29.3,40.3,26.2,16.6,90,64,45,29.97,29.70,55,20,55,0.04
2013-3-20,40.5,31.2,25.1,23.7,17.2,13.9,73,56,42,29.98,29.81,36,14,36,0.00
2013-3-21,28.8,23.3,17.0,17.9,12.6,6.3,78,64,49,29.95,29.86,24,10,24,0.00
2013-3-22,34.5,28.4,24.0,20.1,17.7,15.8,76,64,54,30.04,29.92,23,11,23,0.00
2013-3-23,45.6,34.0,25.0,25.4,20.1,16.1,69,58,39,30.06,29.99,14,5,15,0.00
2013-3-24,42.5,32.7,26.7,27.0,22.0,18.5,82,65,47,29.99,29.51,14,5,14,0.00
2013-3-25,34.6,32.6,30.5,30.3,28.3,26.2,85,84,79,29.75,29.44,20,8,20,0.32
2013-3-26,39.4,34.5,30.9,29.8,28.1,25.6,86,78,66,30.09,29.75,12,5,12,0.24
2013-3-27,41.6,35.6,31.3,28.6,26.0,23.5,84,69,51,30.17,30.07,24,10,24,0.01
2013-3-28,42.8,37.5,33.9,29.1,26.8,24.8,73,65,56,30.27,30.14,17,7,17,0.00
2013-3-29,52.5,42.8,36.1,31.8,26.7,22.7,70,54,35,30.27,30.15,26,7,26,0.00
2013-3-30,54.8,43.8,32.1,30.1,23.0,19.9,64,45,29,30.25,30.01,18,3,18,0.00
2013-3-31,48.3,45.6,42.4,44.0,34.0,20.1,85,66,36,30.01,29.71,22,9,22,0.07
2013-4-1,45.6,40.2,32.1,40.1,26.7,14.0,83,60,36,30.01,29.70,25,11,25,0.02
2013-4-2,40.4,31.8,25.2,19.8,14.8,12.2,64,50,38,30.20,30.01,30,7,30,0.00
2013-4-3,41.9,31.8,26.1,19.4,13.5,10.2,63,47,33,30.42,30.20,28,6,28,0.00
2013-4-4,53.0,37.8,20.7,20.6,14.6,9.1,65,41,23,30.41,29.99,18,4,18,0.00
2013-4-5,53.4,43.5,34.1,31.7,24.1,19.5,66,47,36,30.17,29.93,20,8,20,0.00
2013-4-6,57.7,42.4,27.6,22.3,17.7,11.4,67,41,19,30.28,30.01,20,5,20,0.00
2013-4-7,70.5,60.0,50.9,47.0,38.1,20.5,65,45,30,30.01,29.85,39,19,39,0.00
2013-4-8,73.3,62.0,48.6,50.1,45.0,38.9,69,55,41,30.00,29.85,34,12,34,0.00
2013-4-9,79.1,68.9,59.0,56.9,52.3,48.0,71,56,43,30.05,29.86,26,12,26,0.00
2013-4-10,80.5,70.1,59.0,60.8,55.5,50.6,86,61,46,29.90,29.73,31,15,31,0.11
2013-4-11,73.7,64.7,56.5,58.7,55.1,50.2,87,72,55,29.83,29.53,25,8,25,0.01
2013-4-12,64.3,55.9,44.3,56.5,47.2,32.7,86,73,54,29.83,29.45,32,13,32,0.38
2013-4-13,54.8,45.1,36.5,38.0,32.6,29.0,75,62,47,30.02,29.82,26,12,26,0.00
2013-4-14,61.1,47.7,34.2,38.8,32.2,25.8,73,56,41,30.15,29.99,14,4,14,0.00
2013-4-15,65.2,59.6,54.3,48.8,43.8,35.4,66,56,47,30.07,29.96,28,12,28,0.00
2013-4-16,77.6,64.1,54.7,59.6,52.6,45.4,86,67,52,30.16,29.99,44,14,44,0.38
2013-4-17,65.0,57.9,51.4,54.5,51.1,46.4,88,79,68,30.21,30.06,10,3,10,0.00
2013-4-18,83.7,70.9,59.5,61.4,56.2,52.9,80,62,41,30.08,29.72,32,17,32,0.01
2013-4-19,70.2,57.9,42.1,58.5,46.4,29.6,81,66,55,29.83,29.43,38,20,38,0.19
2013-4-20,47.2,40.4,36.0,32.0,26.3,21.9,73,58,44,30.40,29.84,34,14,34,0.00
2013-4-21,51.4,40.9,30.1,28.5,22.9,20.5,69,50,31,30.60,30.40,10,4,10,0.00
2013-4-22,61.7,50.2,40.8,36.3,27.3,22.1,56,42,27,30.46,30.26,17,7,17,0.00
2013-4-23,69.4,55.4,39.8,43.4,34.9,29.2,69,48,31,30.26,29.94,16,6,16,0.00
2013-4-24,68.5,55.5,38.7,53.2,43.0,31.5,83,64,47,30.14,29.71,40,16,40,0.24
2013-4-25,56.9,44.5,33.5,36.9,32.2,28.6,83,64,39,30.35,30.14,26,10,26,0.00
2013-4-26,58.5,48.8,39.3,36.3,32.1,27.3,82,55,34,30.47,30.35,10,2,10,0.00
2013-4-27,72.7,58.1,41.6,42.8,33.8,27.4,61,41,25,30.38,30.12,18,4,18,0.00
2013-4-28,60.9,56.3,52.7,51.9,45.5,39.6,85,68,48,30.13,29.89,20,7,20,0.21
2013-4-29,63.4,57.1,53.1,56.0,50.2,45.7,85,78,71,30.00,29.90,16,6,16,0.12
2013-4-30,72.6,61.1,53.0,56.5,51.2,47.6,85,71,54,30.15,30.00,17,5,17,0.00
2013-5-1,75.2,63.1,52.2,54.2,47.1,35.7,80,58,34,30.27,30.14,18,5,18,0.00
2013-5-2,76.2,63.5,52.2,49.4,38.1,33.5,55,40,22,30.31,30.16,13,4,13,0.00
2013-5-3,73.3,62.2,51.0,48.7,40.3,36.3,59,45,29,30.21,30.11,25,7,25,0.00
2013-5-4,69.7,58.6,45.4,46.4,38.5,28.9,64,48,33,30.16,30.05,21,6,19,0.00
2013-5-5,72.5,59.4,46.3,40.4,34.6,24.4,72,43,18,30.11,29.98,21,6,21,0.00
2013-5-6,68.2,57.6,44.4,53.9,44.8,34.3,82,63,47,30.05,29.96,17,4,17,0.00
2013-5-7,63.8,58.5,55.3,55.7,52.6,49.8,86,81,71,29.99,29.92,9,3,9,0.16
2013-5-8,71.0,61.5,52.4,53.7,49.8,45.7,87,68,43,29.96,29.85,10,3,14,0.18
2013-5-9,75.4,64.0,54.3,57.1,51.2,46.7,85,65,38,29.96,29.87,14,4,14,0.00
2013-5-10,74.8,62.9,58.5,62.1,55.2,49.6,87,77,61,29.97,29.76,43,10,43,0.46
2013-5-11,60.1,55.7,49.5,56.2,50.8,44.2,87,84,75,29.81,29.73,16,7,16,0.10
2013-5-12,51.8,46.5,38.4,45.9,32.5,27.6,83,59,43,30.05,29.80,28,11,28,0.00
2013-5-13,50.8,43.1,33.3,30.2,26.3,21.8,74,53,38,30.18,30.05,21,5,21,0.00
2013-5-14,62.2,49.8,35.6,41.8,32.6,22.2,68,52,41,30.18,29.88,20,6,20,0.00
2013-5-15,84.1,70.2,55.8,63.3,54.0,38.0,71,57,45,29.88,29.68,34,14,34,0.00
2013-5-16,76.3,68.4,60.9,62.0,55.8,48.7,86,66,40,29.92,29.72,21,8,21,0.36
2013-5-17,78.7,67.8,58.4,62.8,55.4,46.0,87,67,41,30.06,29.92,11,3,12,0.00
2013-5-18,81.2,68.4,54.8,63.9,54.4,43.6,76,62,45,30.08,29.98,15,4,15,0.00
2013-5-19,76.9,67.5,59.0,64.3,59.0,54.2,85,75,62,30.05,29.92,17,4,17,0.02
2013-5-20,83.5,72.2,61.5,68.0,62.5,56.2,84,73,55,29.99,29.86,13,7,13,0.00
2013-5-21,85.1,74.8,65.5,68.8,64.7,60.3,87,72,55,29.91,29.77,22,10,22,0.08
2013-5-22,84.5,70.6,64.4,69.6,61.0,56.5,83,72,52,29.84,29.73,23,12,23,0.10
2013-5-23,74.6,63.9,48.5,62.5,58.1,44.0,87,82,59,29.86,29.73,22,10,22,0.76
2013-5-24,48.2,44.4,41.3,43.9,36.5,30.7,85,74,58,30.26,29.86,17,5,17,0.01
2013-5-25,59.7,52.5,37.6,39.0,35.1,32.0,82,53,39,30.33,30.22,16,5,16,0.00
2013-5-26,64.9,52.8,40.1,42.2,35.0,29.6,70,52,36,30.29,30.19,15,3,15,0.00
2013-5-27,60.0,53.9,44.8,49.3,41.5,32.6,76,63,47,30.25,30.08,8,2,8,0.01
2013-5-28,78.4,66.1,54.4,65.8,57.0,46.6,85,73,58,30.08,29.95,27,9,27,0.21
2013-5-29,83.6,74.6,66.7,65.0,60.3,57.2,72,62,49,30.04,29.97,30,13,30,0.00
2013-5-30,86.2,76.9,66.8,67.1,62.4,57.9,75,62,48,30.14,30.02,14,6,14,0.00
2013-5-31,85.9,77.2,67.4,67.0,62.7,60.1,79,62,49,30.06,29.93,18,8,18,0.00
2013-6-1,84.9,75.7,66.3,68.2,63.7,59.4,83,67,54,29.96,29.75,26,12,26,0.00
2013-6-2,78.4,72.2,67.1,64.5,61.9,58.7,86,71,58,29.82,29.73,26,12,26,0.18
2013-6-3,67.1,61.4,53.2,61.1,52.3,40.7,82,72,60,30.03,29.80,9,3,9,0.00
2013-6-4,70.7,58.5,43.6,51.5,43.8,37.5,79,59,43,30.15,30.03,10,2,10,0.00
2013-6-5,79.6,66.5,51.9,64.0,53.3,43.6,76,63,52,30.11,29.88,13,4,13,0.00
2013-6-6,70.4,65.3,62.2,63.9,60.2,56.8,88,84,67,29.90,29.72,20,8,20,0.93
2013-6-7,63.9,61.3,57.0,59.1,56.7,51.0,89,85,79,29.83,29.71,9,3,9,0.01
2013-6-8,70.4,61.8,55.5,57.3,53.0,50.4,85,73,59,30.08,29.83,12,2,12,0.00
2013-6-9,81.3,70.3,58.7,65.6,59.3,52.9,85,69,53,30.14,29.97,8,2,8,0.00
2013-6-10,74.5,69.0,65.8,67.2,63.1,60.3,86,82,73,29.97,29.73,18,8,18,0.65
2013-6-11,75.8,68.1,63.6,65.0,61.2,59.0,88,79,62,29.85,29.75,18,9,18,0.12
2013-6-12,81.0,73.5,65.0,69.4,64.7,59.7,84,74,62,29.87,29.68,16,6,16,0.00
2013-6-13,73.8,65.8,59.0,68.7,60.1,52.2,86,82,74,29.75,29.44,24,9,24,1.80
2013-6-14,70.3,61.6,55.6,57.1,53.6,50.5,86,76,54,30.03,29.75,8,2,8,0.00
2013-6-15,75.9,65.7,53.2,56.4,52.6,48.4,87,65,40,30.11,29.97,13,3,13,0.00
2013-6-16,72.3,67.1,61.7,65.4,60.0,54.0,86,78,64,29.99,29.87,24,11,24,0.19
2013-6-17,81.7,72.4,64.9,64.9,61.9,59.3,87,71,49,29.94,29.85,11,6,11,0.00
2013-6-18,75.2,67.6,62.5,66.0,60.6,56.3,87,79,62,29.91,29.79,30,2,30,0.11
2013-6-19,73.8,65.0,55.7,57.8,51.6,46.5,85,64,40,30.11,29.91,8,3,8,0.00
2013-6-20,80.1,68.1,53.7,60.2,53.2,46.4,81,60,43,30.20,30.11,9,2,9,0.00
2013-6-21,83.8,72.6,59.0,62.9,56.8,52.1,81,59,39,30.22,30.11,13,2,13,0.00
2013-6-22,85.8,76.2,64.3,69.4,64.3,57.5,81,67,55,30.15,30.02,17,7,17,0.00
2013-6-23,86.7,77.4,68.7,70.2,65.9,63.2,83,69,54,30.10,29.99,16,6,16,0.00
2013-6-24,87.4,77.9,69.0,69.5,65.1,62.0,79,66,50,30.09,29.95,17,6,17,0.00
2013-6-25,87.4,75.2,66.3,70.7,65.1,61.0,85,72,55,30.00,29.83,28,10,28,0.32
2013-6-26,79.6,71.9,65.1,69.3,65.1,61.1,88,79,64,29.92,29.76,18,6,18,1.40
2013-6-27,76.9,70.0,67.0,68.6,65.3,62.6,88,85,75,29.76,29.60,22,7,22,0.97
2013-6-28,77.4,68.3,63.0,69.0,63.0,58.4,88,83,72,29.62,29.45,27,6,27,0.67
2013-6-29,78.8,68.1,59.1,65.0,60.4,55.3,88,77,60,29.65,29.51,20,7,20,0.00
2013-6-30,82.5,69.2,61.8,68.8,62.8,57.9,88,81,58,29.81,29.64,23,2,43,0.03
2013-7-1,77.0,71.4,65.4,68.3,64.8,61.8,89,80,67,29.91,29.79,43,3,43,0.27
2013-7-2,83.6,74.0,65.8,70.6,65.9,62.1,89,77,60,30.01,29.88,15,4,15,0.17
2013-7-3,85.2,75.9,69.4,70.2,65.9,62.6,80,72,54,30.12,30.00,15,7,15,0.00
2013-7-4,85.2,75.8,69.8,70.0,66.5,64.4,85,74,55,30.17,30.06,14,6,14,0.03
2013-7-5,83.5,75.1,68.6,70.6,66.6,64.1,87,76,59,30.12,30.04,20,9,20,0.05
2013-7-6,74.7,70.8,69.3,68.3,66.0,64.9,87,85,77,30.12,30.10,9,4,9,0.04
2013-7-7,74.9,71.6,67.7,68.3,65.9,63.3,87,82,75,30.05,29.97,16,7,16,0.04
2013-7-8,82.5,72.8,63.3,68.9,64.9,58.8,88,77,60,30.09,30.00,16,8,16,0.00
2013-7-9,82.5,72.9,67.2,73.0,67.1,63.4,88,82,72,30.07,29.92,22,9,22,1.37
2013-7-10,84.2,73.4,67.7,76.8,68.2,62.6,89,84,65,29.97,29.77,29,8,29,1.15
2013-7-11,74.6,70.4,64.3,64.2,59.6,55.8,88,69,60,29.95,29.91,16,2,16,0.00
2013-7-12,73.1,65.1,57.5,64.3,59.0,53.1,87,81,71,30.07,29.95,7,2,7,0.02
2013-7-13,80.9,71.7,62.6,68.1,63.5,58.1,86,76,59,30.18,30.05,9,2,9,0.00
2013-7-14,87.6,78.9,70.4,70.5,66.8,64.6,82,67,53,30.24,30.17,18,6,18,0.00
2013-7-15,89.5,79.9,71.3,72.6,67.8,63.4,83,68,50,30.28,30.18,10,4,10,0.00
2013-7-16,87.9,77.4,72.4,75.1,69.5,66.7,86,77,59,30.26,30.18,9,2,9,0.01
2013-7-17,89.0,77.5,71.9,77.4,71.6,67.8,89,83,65,30.25,30.10,12,2,12,0.00
2013-7-18,90.8,80.5,71.8,76.6,71.8,67.6,87,76,58,30.13,29.97,14,5,14,0.00
2013-7-19,88.6,77.7,71.0,75.9,70.4,65.9,87,79,62,29.98,29.80,26,9,26,0.18
2013-7-20,77.8,72.5,69.3,71.1,66.7,64.2,87,82,73,29.88,29.80,20,8,20,0.02
2013-7-21,83.3,72.9,67.1,71.6,66.4,63.4,88,80,65,29.93,29.85,12,4,12,0.01
2013-7-22,78.4,71.6,65.6,71.2,66.4,61.4,88,84,75,29.90,29.72,21,3,21,0.07
2013-7-23,82.0,70.9,64.3,69.0,64.1,60.1,89,80,59,29.74,29.65,18,7,18,0.14
2013-7-24,69.7,64.2,59.0,61.6,55.3,51.2,88,73,59,29.96,29.70,10,4,10,0.01
2013-7-25,73.4,63.9,53.7,57.8,51.9,48.6,84,66,43,30.06,29.95,6,2,6,0.00
2013-7-26,78.6,68.1,55.6,60.5,55.0,50.5,84,64,47,30.07,29.95,14,2,14,0.00
2013-7-27,73.7,67.4,62.7,66.8,60.5,54.1,88,79,64,29.94,29.80,16,6,16,0.54
2013-7-28,74.9,66.8,59.3,62.2,58.0,50.4,88,74,53,30.00,29.81,20,7,20,0.08
2013-7-29,73.5,63.9,55.2,58.4,52.8,48.6,82,68,55,30.17,30.00,18,6,20,0.00
2013-7-30,76.7,67.1,57.2,59.9,55.4,51.3,82,67,52,30.21,30.11,12,2,12,0.00
2013-7-31,76.9,67.8,61.9,64.6,60.3,55.4,85,77,62,30.12,29.92,14,4,14,0.01
2013-8-1,78.9,69.9,64.5,65.6,61.2,56.9,88,75,56,29.92,29.82,12,4,12,0.00
2013-8-2,76.7,69.0,60.4,61.0,57.8,54.1,83,68,48,29.95,29.86,20,7,20,0.00
2013-8-3,74.0,67.3,63.1,65.4,60.4,54.2,88,79,63,29.95,29.89,21,7,21,0.21
2013-8-4,72.2,64.0,55.6,57.2,53.8,50.7,86,70,54,30.06,29.95,10,2,10,0.00
2013-8-5,72.8,63.7,54.5,56.7,52.6,49.4,85,68,49,30.10,29.98,10,1,10,0.00
2013-8-6,79.3,68.6,57.9,62.3,56.3,52.5,84,66,47,30.00,29.93,13,2,13,0.00
2013-8-7,83.7,70.7,64.9,70.6,63.4,58.6,87,78,62,29.96,29.86,29,6,29,0.75
2013-8-8,83.7,73.7,67.0,73.4,67.4,63.0,87,81,67,29.93,29.86,17,7,17,0.00
2013-8-9,78.6,72.3,66.5,71.5,67.3,61.6,89,84,77,29.99,29.83,21,4,21,0.06
2013-8-10,80.1,71.5,62.6,66.4,61.7,57.5,85,72,58,30.05,29.95,12,2,12,0.00
2013-8-11,82.4,70.3,61.7,67.8,62.3,55.8,87,76,57,30.08,29.97,13,2,13,0.38
2013-8-12,81.6,72.1,63.6,67.7,63.8,60.2,89,76,57,30.02,29.83,14,4,14,0.01
2013-8-13,76.4,69.2,57.8,68.1,60.5,48.2,87,75,59,29.94,29.75,16,7,16,0.04
2013-8-14,66.0,58.3,51.4,54.1,49.3,45.9,83,72,58,30.13,29.93,8,1,8,0.00
2013-8-15,72.3,61.2,52.5,55.4,48.9,46.9,82,66,45,30.18,30.07,12,1,12,0.00
2013-8-16,76.6,65.1,54.1,59.6,52.2,47.9,85,65,42,30.13,30.07,12,1,12,0.00
2013-8-17,75.8,66.8,57.6,60.1,55.3,51.9,83,67,48,30.21,30.14,10,2,10,0.00
2013-8-18,70.4,65.5,61.4,63.0,59.5,55.1,87,81,74,30.18,30.10,8,1,8,0.07
2013-8-19,77.9,68.8,64.8,66.4,62.3,57.9,89,80,62,30.12,30.03,12,2,12,0.07
2013-8-20,81.9,71.0,60.7,64.2,59.4,55.6,84,68,49,30.16,30.06,9,3,9,0.00
2013-8-21,82.5,72.0,61.6,67.1,62.1,56.8,86,72,51,30.16,30.01,12,2,12,0.00
2013-8-22,82.6,71.9,65.0,69.4,64.9,59.7,85,79,60,30.06,29.93,24,6,24,0.02
2013-8-23,79.2,70.3,64.9,66.3,62.1,54.1,89,76,56,30.11,29.93,10,2,10,0.02
2013-8-24,79.7,68.4,56.8,64.4,57.1,51.9,84,68,50,30.26,30.11,7,1,7,0.00
2013-8-25,81.7,70.3,60.5,63.1,58.7,54.5,82,68,47,30.32,30.19,13,6,13,0.00
2013-8-26,83.7,72.1,62.1,66.3,61.1,55.5,80,69,52,30.22,29.98,21,8,21,0.00
2013-8-27,79.8,73.4,69.7,69.8,66.9,64.1,87,80,70,29.99,29.89,16,7,17,0.04
2013-8-28,80.3,72.9,69.8,73.1,68.8,66.4,89,87,76,29.90,29.76,16,5,16,0.49
2013-8-29,82.0,73.9,69.0,70.0,66.7,64.6,89,79,61,29.99,29.86,8,2,8,0.00
2013-8-30,85.9,75.8,67.7,71.7,67.0,63.0,86,75,59,29.96,29.78,17,7,17,0.00
2013-8-31,85.7,75.5,69.9,70.8,67.5,65.2,85,77,58,29.81,29.72,16,8,16,0.00
2013-9-1,79.9,72.9,69.3,70.5,67.2,65.0,87,82,70,29.87,29.73,14,6,14,0.00
2013-9-2,83.7,73.4,66.7,70.7,66.4,61.6,88,79,61,29.88,29.77,21,8,21,0.00
2013-9-3,72.4,64.2,59.0,61.7,56.1,52.1,88,76,55,30.09,29.86,13,2,13,0.01
2013-9-4,76.1,63.9,53.4,58.5,53.9,49.3,87,71,49,30.19,30.09,15,5,15,0.00
2013-9-5,72.1,64.5,56.4,58.5,53.2,45.9,83,68,49,30.25,30.11,13,5,13,0.00
2013-9-6,72.4,60.3,47.5,51.7,45.0,39.9,84,59,34,30.32,30.18,12,1,12,0.00
2013-9-7,78.9,65.3,50.3,56.2,50.4,43.4,78,60,39,30.18,30.00,15,4,15,0.00
2013-9-8,78.2,69.8,64.4,65.9,59.9,55.5,78,71,63,30.09,29.96,8,4,8,0.00
2013-9-9,84.0,69.8,57.3,71.0,62.1,52.8,86,77,62,30.14,30.04,16,5,16,0.00
2013-9-10,89.5,78.2,70.0,75.0,69.5,64.5,83,75,61,30.17,30.08,22,11,22,0.00
2013-9-11,88.7,76.7,72.3,73.7,68.9,64.9,85,77,58,30.17,30.04,16,8,16,0.00
2013-9-12,75.9,70.3,63.4,68.5,65.3,59.5,88,84,76,30.04,29.84,20,8,20,0.26
2013-9-13,66.4,57.7,51.9,59.5,50.6,44.1,88,77,61,30.09,29.85,20,3,20,0.06
2013-9-14,64.5,55.0,47.6,46.5,43.9,40.2,84,67,49,30.23,30.08,9,2,9,0.00
2013-9-15,70.3,58.9,47.2,54.7,48.6,41.9,84,69,56,30.25,30.12,16,4,16,0.00
2013-9-16,69.0,59.9,53.7,56.6,51.8,47.0,87,75,57,30.36,30.12,13,3,13,0.14
2013-9-17,68.6,56.3,46.0,53.6,46.9,41.4,86,72,51,30.45,30.31,7,2,7,0.00
2013-9-18,73.0,60.7,50.7,54.8,47.9,40.4,73,63,48,30.32,30.17,13,5,13,0.00
2013-9-19,78.8,67.6,61.3,62.3,58.5,53.3,87,74,55,30.19,30.07,12,3,12,0.00
2013-9-20,79.1,69.4,62.5,68.1,63.0,56.8,87,80,68,30.08,29.84,16,8,16,0.00
2013-9-21,68.2,63.2,57.6,63.6,58.6,53.7,87,85,81,29.85,29.71,17,6,17,0.66
2013-9-22,60.9,55.9,52.2,53.7,47.9,43.4,88,75,57,30.08,29.84,10,2,10,0.02
2013-9-23,57.6,52.3,47.2,45.6,43.3,39.8,83,72,58,30.21,30.08,8,1,8,0.00
2013-9-24,71.3,54.4,38.8,51.9,43.4,34.4,87,69,44,30.19,30.03,6,1,6,0.00
2013-9-25,77.4,60.7,47.2,57.0,48.6,42.3,85,66,45,30.05,29.93,6,1,6,0.00
2013-9-26,76.9,63.1,50.9,56.2,49.4,46.2,85,63,36,30.12,29.98,9,1,9,0.00
2013-9-27,77.4,61.8,49.8,56.5,50.1,45.2,86,67,41,30.24,30.12,7,1,7,0.00
2013-9-28,75.9,61.9,51.4,57.4,51.4,46.8,87,70,48,30.31,30.19,12,3,12,0.00
2013-9-29,75.8,63.0,52.7,58.9,52.2,46.1,79,69,53,30.20,30.06,13,6,13,0.00
2013-9-30,72.3,63.0,57.8,60.3,55.3,51.3,83,76,63,30.10,30.03,13,5,13,0.00
2013-10-1,77.3,66.3,58.6,61.8,57.3,54.1,86,74,55,30.14,30.05,20,6,20,0.00
2013-10-2,79.5,68.1,59.0,65.1,59.3,53.9,86,74,58,30.15,30.08,14,6,14,0.00
2013-10-3,78.9,69.1,62.8,66.4,61.6,58.2,86,78,63,30.14,30.05,17,7,17,0.07
2013-10-4,81.1,70.6,63.6,67.5,62.4,59.0,87,76,56,30.15,30.07,21,6,21,0.00
2013-10-5,82.5,71.4,65.0,68.0,63.6,60.1,86,77,59,30.13,30.02,26,6,26,0.24
2013-10-6,84.4,74.0,67.4,67.3,62.2,57.5,85,68,49,30.02,29.78,20,10,21,0.01
2013-10-7,71.3,56.6,47.9,59.1,47.0,40.7,86,71,57,30.19,29.73,26,12,26,0.27
2013-10-8,66.6,54.8,45.1,49.1,43.6,39.7,84,67,46,30.38,30.19,9,2,9,0.00
2013-10-9,71.5,55.8,43.6,48.6,42.5,38.7,84,63,36,30.39,30.29,10,2,10,0.00
2013-10-10,72.8,57.4,46.9,50.1,43.0,38.8,76,60,40,30.29,30.15,6,2,6,0.00
2013-10-11,58.6,55.3,51.9,54.3,49.8,44.9,87,82,66,30.15,30.10,9,3,9,0.06
2013-10-12,72.8,62.6,55.7,61.7,55.0,49.5,83,76,66,30.20,30.12,10,3,10,0.00
2013-10-13,70.5,63.4,58.5,59.3,55.5,52.1,84,76,65,30.30,30.19,14,1,14,0.00
2013-10-14,61.4,59.0,56.2,55.7,54.2,52.1,88,84,80,30.35,30.28,7,2,7,0.00
2013-10-15,71.2,62.1,52.9,59.8,54.8,48.8,88,78,65,30.28,30.02,12,4,12,0.01
2013-10-16,62.5,59.7,55.9,57.5,54.2,51.1,87,82,73,30.03,29.92,22,10,22,0.24
2013-10-17,61.8,54.4,49.1,57.2,49.4,44.4,86,83,79,29.97,29.74,19,4,19,0.38
2013-10-18,62.3,52.0,43.3,45.2,41.7,38.4,85,69,48,30.11,29.96,22,10,22,0.01
2013-10-19,53.1,47.2,40.7,44.9,39.7,35.3,82,75,66,30.05,29.82,24,9,24,0.03
2013-10-20,57.9,46.7,37.3,41.2,36.5,33.2,85,69,49,30.13,30.02,26,12,26,0.00
2013-10-21,66.2,53.4,42.2,41.3,36.7,33.5,72,55,36,30.13,29.92,25,11,25,0.00
2013-10-22,56.0,47.6,40.1,44.3,34.3,27.9,83,61,43,30.03,29.90,20,5,20,0.15
2013-10-23,43.2,39.6,35.5,35.4,32.6,28.7,83,76,57,30.02,29.83,15,3,15,0.11
2013-10-24,44.9,38.0,32.8,32.1,29.5,26.9,83,72,53,30.25,30.01,23,12,23,0.00
2013-10-25,48.4,37.9,31.1,34.4,28.6,25.7,84,70,49,30.44,30.24,20,9,20,0.00
2013-10-26,49.4,40.7,31.0,30.9,27.0,24.3,77,59,41,30.35,29.99,29,16,37,0.00
2013-10-27,54.2,44.7,36.2,35.5,30.8,28.8,79,59,42,30.18,30.07,18,5,18,0.00
2013-10-28,60.5,48.4,38.2,39.0,32.5,28.7,73,55,39,30.36,30.18,7,2,10,0.00
2013-10-29,60.8,49.0,37.0,40.8,35.8,31.7,84,62,43,30.45,30.33,8,2,8,0.00
2013-10-30,64.3,53.9,45.4,51.3,43.1,34.9,82,67,59,30.33,30.16,12,4,12,0.00
2013-10-31,67.7,61.3,56.6,55.9,54.0,51.3,86,77,61,30.16,29.52,33,16,33,0.16
2013-11-1,69.1,59.1,53.7,56.3,47.2,40.9,83,65,52,29.75,29.39,50,19,50,0.16
2013-11-2,54.0,48.0,43.1,42.0,39.9,37.6,83,73,62,30.04,29.71,24,8,24,0.15
2013-11-3,48.4,41.4,32.9,38.6,31.5,23.3,82,69,51,30.53,30.03,15,4,15,0.00
2013-11-4,46.9,37.2,27.3,26.5,23.5,20.4,82,59,41,30.63,30.51,9,2,9,0.00
2013-11-5,59.7,47.6,38.3,36.3,29.5,24.8,63,50,38,30.59,30.40,14,5,14,0.00
2013-11-6,72.2,58.8,45.1,53.6,44.5,28.2,82,60,47,30.41,29.99,30,14,30,0.05
2013-11-7,56.9,45.0,37.7,52.8,37.2,25.1,86,74,54,30.20,29.92,23,9,23,0.41
2013-11-8,42.7,37.6,32.9,29.4,25.9,22.8,75,63,50,30.39,30.17,23,7,23,0.00
2013-11-9,56.6,44.5,30.6,34.5,25.7,22.6,73,50,30,30.37,30.05,40,16,40,0.00
2013-11-10,52.0,43.8,35.9,34.7,30.2,26.2,69,59,44,30.36,30.05,32,17,32,0.00
2013-11-11,48.0,40.3,32.0,36.7,28.8,25.0,82,65,42,30.36,30.13,24,12,24,0.00
2013-11-12,34.4,29.0,25.3,28.9,22.5,18.1,84,77,60,30.58,30.18,17,7,17,0.05
2013-11-13,37.0,28.8,21.9,23.2,19.5,16.4,79,68,53,30.65,30.49,20,10,20,0.00
2013-11-14,49.4,36.9,26.0,25.2,20.5,17.7,72,53,34,30.49,30.27,23,14,23,0.00
2013-11-15,55.0,46.2,37.1,36.2,25.5,19.9,59,45,30,30.31,30.21,26,12,26,0.00
2013-11-16,60.1,52.6,43.8,47.8,42.8,35.9,80,70,60,30.30,30.09,18,9,18,0.00
2013-11-17,60.9,57.1,53.5,56.0,50.4,45.4,86,79,69,30.09,29.58,36,17,36,0.61
2013-11-18,57.5,47.7,38.0,50.0,33.8,24.2,76,59,46,30.13,29.67,39,21,39,0.03
2013-11-19,38.0,34.9,30.4,26.2,23.1,20.3,66,62,56,30.50,30.13,18,5,18,0.00
2013-11-20,48.9,36.1,26.0,22.9,17.9,12.8,75,51,24,30.57,30.45,18,5,18,0.00
2013-11-21,57.6,45.5,34.1,40.5,29.6,16.7,61,54,44,30.52,30.31,15,5,15,0.00
2013-11-22,53.5,49.2,35.6,48.8,43.4,29.4,87,81,61,30.31,30.12,24,10,24,0.17
2013-11-23,37.2,30.7,19.3,29.3,21.9,9.7,82,70,54,30.45,30.22,25,9,25,0.00
2013-11-24,24.3,18.9,15.2,12.4,8.7,5.1,73,64,54,30.66,30.44,25,7,25,0.00
2013-11-25,36.8,25.9,14.5,22.5,9.9,5.2,69,52,33,30.62,30.34,24,10,24,0.00
2013-11-26,35.5,32.2,30.4,29.1,27.8,23.0,86,84,60,30.34,29.82,21,4,21,0.46
2013-11-27,32.3,27.5,21.8,28.6,22.0,13.6,86,80,68,30.24,29.82,24,8,24,0.01
2013-11-28,29.0,24.0,15.9,19.3,15.3,9.0,77,69,61,30.54,30.24,22,8,22,0.01
2013-11-29,37.0,29.5,24.9,21.1,19.1,16.8,73,65,51,30.75,30.54,8,3,8,0.13
2013-11-30,40.1,31.7,21.9,27.1,21.1,14.9,76,65,54,30.71,30.32,16,8,16,0.01
2013-12-1,43.4,40.6,35.3,30.0,28.1,24.4,66,61,55,30.32,30.06,20,9,20,0.01
2013-12-2,51.4,41.9,38.0,37.1,31.6,28.2,82,67,57,30.06,29.90,9,4,10,0.00
2013-12-3,54.4,43.7,36.3,42.5,36.0,31.3,85,75,59,29.99,29.92,7,2,7,0.02
2013-12-4,59.5,51.0,42.9,46.9,41.0,35.1,76,69,62,30.06,29.94,17,7,17,0.00
2013-12-5,61.6,55.2,39.8,55.4,48.7,35.4,87,79,69,30.09,29.91,21,10,21,0.92
2013-12-6,39.7,32.4,27.4,35.3,28.2,23.2,85,84,83,30.37,30.08,16,4,16,0.14
2013-12-7,30.8,25.7,20.0,23.5,18.9,12.5,85,75,62,30.69,30.36,12,2,12,0.06
2013-12-8,30.9,23.5,17.7,26.6,17.7,11.1,88,78,73,30.68,30.18,10,4,10,0.00
2013-12-9,37.5,33.8,29.2,33.7,28.7,21.9,90,82,74,30.24,30.07,25,12,25,0.15
2013-12-10,29.2,25.5,21.7,21.9,16.8,11.0,82,70,53,30.38,30.13,33,14,33,0.00
2013-12-11,29.6,23.6,17.1,18.8,13.6,9.5,76,65,57,30.48,30.35,25,11,25,0.00
2013-12-12,23.0,18.5,11.4,12.2,6.7,3.2,75,60,49,30.59,30.38,27,13,27,0.00
2013-12-13,36.2,27.3,20.0,19.3,12.9,5.7,61,54,49,30.38,30.31,23,11,23,0.00
2013-12-14,37.5,33.1,30.6,33.7,24.7,16.1,86,72,52,30.35,29.75,13,5,13,0.37
2013-12-15,38.6,29.3,22.4,34.8,23.3,12.8,86,78,65,30.12,29.72,37,17,37,0.01
2013-12-16,24.9,22.4,19.0,18.9,14.9,11.4,80,73,63,30.28,30.12,20,3,20,0.00
2013-12-17,33.7,30.3,24.2,29.4,24.3,18.9,84,78,69,30.15,30.05,23,9,23,0.02
2013-12-18,28.9,26.5,24.2,21.3,19.1,15.8,79,73,66,30.31,30.14,22,13,22,0.00
2013-12-19,52.1,41.7,26.7,36.4,26.9,18.3,71,56,47,30.23,30.11,28,14,28,0.01
2013-12-20,55.7,50.9,45.7,48.0,38.5,26.8,83,64,43,30.11,29.93,29,15,31,0.11
2013-12-21,60.3,57.9,54.8,56.0,52.5,48.1,87,82,74,29.94,29.69,33,15,33,0.53
2013-12-22,68.8,58.9,53.3,57.5,52.1,44.9,88,78,66,30.00,29.60,45,21,45,0.18
2013-12-23,53.3,42.2,33.5,45.2,36.9,27.1,85,81,73,30.30,30.00,15,6,15,0.05
2013-12-24,26.2,19.6,13.5,20.9,10.1,5.3,80,66,53,30.64,30.34,25,7,25,0.00
2013-12-25,27.2,19.9,11.7,20.0,10.9,4.7,77,68,56,30.64,30.35,12,3,12,0.00
2013-12-26,36.3,30.3,25.9,25.2,21.3,16.2,83,69,52,30.45,30.25,30,13,30,0.02
2013-12-27,42.4,34.1,26.6,27.7,21.6,16.9,68,60,54,30.48,30.36,23,11,23,0.00
2013-12-28,51.7,42.0,35.9,31.8,25.7,20.9,58,52,45,30.37,30.14,25,15,25,0.00
2013-12-29,44.0,40.8,38.6,37.6,32.9,23.0,86,75,44,30.13,29.74,34,9,34,0.37
2013-12-30,39.2,26.4,21.7,34.8,19.4,12.1,84,75,65,30.28,29.92,25,5,25,0.00
2013-12-31,25.2,23.5,21.8,19.0,16.1,13.5,79,73,66,30.43,30.19,31,14,31,0.01
2014-1-1,39.6,30.2,24.2,26.5,21.3,16.5,75,70,58,30.44,30.15,14,5,14,0.00
2014-1-2,29.7,24.2,10.7,24.1,18.6,4.9,89,79,75,30.16,29.77,22,6,22,0.00